Time;durP1;ratioP1;P1;durP2;ratioP2;P2;SDS_P1;SDS_P2;PMS_P1;PMS_P2;Temp;Humidity;BMP_temperature;BMP_pressure;BME280_temperature;BME280_humidity;BME280_pressure;Samples;Min_cycle;Max_cycle;Signal;HPM_P1;HPM_P2
2021/05/28 00:00:40;;;;;;;12.40;7.00;;;;;;;15.44;75.60;96167.09;5113663;28;20102;-62
2021/05/28 00:03:06;;;;;;;17.75;7.40;;;;;;;15.44;75.27;96170.56;5113712;28;20020;-59
2021/05/28 00:05:31;;;;;;;7.90;6.85;;;;;;;15.38;75.40;96163.06;5113976;28;20023;-63
2021/05/28 00:07:57;;;;;;;15.93;7.38;;;;;;;15.34;75.48;96156.28;5113778;28;20351;-64
2021/05/28 00:10:22;;;;;;;10.90;6.97;;;;;;;15.31;75.61;96167.00;5113749;28;20028;-60
2021/05/28 00:12:48;;;;;;;12.50;7.70;;;;;;;15.29;75.48;96164.47;5113618;28;20419;-60
2021/05/28 00:15:15;;;;;;;8.88;6.70;;;;;;;15.29;75.42;96167.09;5113566;28;20414;-62
2021/05/28 00:17:41;;;;;;;11.70;6.50;;;;;;;15.24;75.63;96161.28;5113605;28;20099;-65
2021/05/28 00:20:10;;;;;;;7.00;6.30;;;;;;;15.17;75.39;96155.56;5113506;28;20111;-63
2021/05/28 00:22:36;;;;;;;6.25;5.65;;;;;;;15.13;75.33;96157.53;5113769;28;20089;-58
2021/05/28 00:25:01;;;;;;;12.45;6.55;;;;;;;15.05;75.13;96153.72;5113507;28;20027;-55
2021/05/28 00:27:30;;;;;;;7.47;5.55;;;;;;;15.02;74.97;96145.03;5113504;28;20028;-56
2021/05/28 00:29:57;;;;;;;8.60;5.82;;;;;;;14.93;74.87;96135.06;5113471;28;20019;-62
2021/05/28 00:32:22;;;;;;;9.07;5.00;;;;;;;14.93;74.90;96134.25;5113589;28;20020;-62
2021/05/28 00:34:49;;;;;;;19.38;5.50;;;;;;;14.83;74.84;96131.31;5115166;28;20036;-59
2021/05/28 00:37:16;;;;;;;8.23;4.57;;;;;;;14.77;74.82;96129.88;5116088;28;20429;-58
2021/05/28 00:39:41;;;;;;;10.70;5.10;;;;;;;14.64;75.11;96121.91;5117643;28;20085;-61
2021/05/28 00:42:07;;;;;;;7.13;5.35;;;;;;;14.62;75.20;96134.28;5117742;28;20469;-58
2021/05/28 00:44:33;;;;;;;14.15;5.57;;;;;;;14.51;75.76;96127.06;5117498;28;20026;-59
2021/05/28 00:46:58;;;;;;;14.30;5.03;;;;;;;14.53;75.58;96125.19;5117528;28;20480;-53
2021/05/28 00:49:24;;;;;;;11.50;5.20;;;;;;;14.57;75.71;96117.97;5117245;28;20065;-65
2021/05/28 00:51:50;;;;;;;10.63;5.32;;;;;;;14.60;75.42;96113.34;5117165;28;20492;-65
2021/05/28 00:54:16;;;;;;;7.95;4.82;;;;;;;14.61;75.05;96108.94;5117333;28;20020;-65
2021/05/28 00:56:43;;;;;;;8.85;5.00;;;;;;;14.53;75.29;96114.66;5117388;27;20133;-61
2021/05/28 00:59:09;;;;;;;20.02;5.20;;;;;;;14.47;75.40;96113.25;5117143;28;20027;-62
2021/05/28 01:01:35;;;;;;;17.70;4.78;;;;;;;14.50;75.08;96114.84;5117188;28;20038;-64
2021/05/28 01:04:01;;;;;;;11.68;5.07;;;;;;;14.48;74.95;96119.38;5117049;28;20019;-60
2021/05/28 01:06:27;;;;;;;9.73;5.22;;;;;;;14.31;75.44;96115.09;5117049;28;20024;-62
2021/05/28 01:08:54;;;;;;;7.55;5.43;;;;;;;14.30;75.56;96110.78;5117077;28;20023;-54
2021/05/28 01:11:20;;;;;;;9.68;5.13;;;;;;;14.28;75.71;96113.50;5116833;28;20016;-60
2021/05/28 01:13:46;;;;;;;10.35;4.95;;;;;;;14.29;75.54;96117.81;5117021;28;20107;-58
2021/05/28 01:16:12;;;;;;;16.02;5.82;;;;;;;14.25;75.62;96114.56;5116879;28;20488;-61
2021/05/28 01:18:38;;;;;;;9.27;5.38;;;;;;;14.26;75.65;96110.13;5116850;28;20028;-64
2021/05/28 01:21:03;;;;;;;9.05;4.97;;;;;;;14.23;75.59;96116.41;5116858;28;20383;-63
2021/05/28 01:23:29;;;;;;;14.05;6.10;;;;;;;14.28;75.53;96113.50;5116624;28;20055;-56
2021/05/28 01:25:55;;;;;;;7.82;4.80;;;;;;;14.26;75.74;96115.38;5116756;28;20023;-64
2021/05/28 01:28:21;;;;;;;9.27;4.97;;;;;;;14.26;75.20;96118.00;5116858;28;20028;-62
2021/05/28 01:30:46;;;;;;;9.40;5.00;;;;;;;14.22;74.77;96108.63;5116643;28;20411;-60
2021/05/28 01:33:12;;;;;;;8.05;3.78;;;;;;;14.20;74.44;96110.47;5116700;28;20024;-62
2021/05/28 01:35:38;;;;;;;8.80;5.45;;;;;;;14.09;75.18;96104.06;5116356;28;20602;-64
2021/05/28 01:38:05;;;;;;;15.20;6.18;;;;;;;14.08;75.56;96104.16;5116398;28;20458;-61
2021/05/28 01:40:31;;;;;;;7.47;4.82;;;;;;;14.09;75.73;96098.81;5116379;28;20028;-63
2021/05/28 01:42:57;;;;;;;14.20;5.38;;;;;;;14.12;75.42;96097.81;5116579;28;20381;-57
2021/05/28 01:45:22;;;;;;;8.98;4.72;;;;;;;14.04;75.08;96093.00;5116196;28;20027;-59
2021/05/28 01:47:48;;;;;;;8.80;4.70;;;;;;;13.95;75.10;96097.03;5116252;28;20035;-59
2021/05/28 01:50:15;;;;;;;12.98;4.90;;;;;;;13.83;75.52;96098.59;5116291;28;20023;-58
2021/05/28 01:52:42;;;;;;;12.02;5.20;;;;;;;13.79;75.56;96085.69;5116190;28;20020;-61
2021/05/28 01:55:09;;;;;;;12.20;5.00;;;;;;;13.86;76.04;96085.25;5116222;28;20046;-57
2021/05/28 01:57:36;;;;;;;10.60;4.60;;;;;;;13.93;75.24;96087.53;5116089;28;20136;-59
2021/05/28 02:00:04;;;;;;;5.95;4.15;;;;;;;13.89;74.93;96085.09;5115883;28;20473;-57
2021/05/28 02:02:29;;;;;;;15.20;5.35;;;;;;;13.78;75.19;96076.97;5115847;28;20388;-61
2021/05/28 02:04:55;;;;;;;8.77;5.30;;;;;;;13.65;76.56;96076.84;5116031;28;20024;-66
2021/05/28 02:07:20;;;;;;;10.25;4.90;;;;;;;13.75;76.84;96083.25;5115849;28;20039;-56
2021/05/28 02:09:46;;;;;;;10.23;4.63;;;;;;;13.77;75.99;96080.53;5115916;28;20381;-63
2021/05/28 02:12:11;;;;;;;9.32;4.60;;;;;;;13.77;76.20;96072.66;5115705;28;20023;-62
2021/05/28 02:14:37;;;;;;;6.38;4.07;;;;;;;13.77;75.49;96076.13;5115615;28;20031;-61
2021/05/28 02:17:03;;;;;;;12.93;4.88;;;;;;;13.72;76.10;96075.53;5115879;28;20051;-61
2021/05/28 02:19:28;;;;;;;8.45;4.93;;;;;;;13.71;76.32;96076.47;5115543;28;20024;-62
2021/05/28 02:21:54;;;;;;;12.60;5.47;;;;;;;13.75;76.50;96080.63;5115582;28;20020;-62
2021/05/28 02:24:22;;;;;;;5.90;5.25;;;;;;;13.77;76.33;96081.38;5115530;28;20030;-61
2021/05/28 02:26:48;;;;;;;7.07;4.38;;;;;;;13.80;75.80;96082.97;5115450;28;20024;-59
2021/05/28 02:29:14;;;;;;;20.48;5.13;;;;;;;13.75;75.79;96075.38;5114242;28;20023;-64
2021/05/28 02:31:40;;;;;;;5.65;4.68;;;;;;;13.74;75.25;96076.31;5115397;28;20038;-64
2021/05/28 02:34:07;;;;;;;14.05;5.00;;;;;;;13.71;76.50;96076.47;5115307;28;20020;-63
2021/05/28 02:36:33;;;;;;;9.93;5.15;;;;;;;13.73;76.38;96076.41;5115049;28;20047;-63
2021/05/28 02:38:59;;;;;;;13.32;4.47;;;;;;;13.75;75.73;96080.63;5115074;28;20067;-59
2021/05/28 02:41:25;;;;;;;11.45;5.22;;;;;;;13.75;75.95;96087.66;5115317;28;20039;-61
2021/05/28 02:43:50;;;;;;;8.93;5.10;;;;;;;13.73;75.85;96097.44;5115252;28;20020;-59
2021/05/28 02:46:17;;;;;;;9.75;4.72;;;;;;;13.73;75.94;96093.00;5115159;28;20018;-61
2021/05/28 02:48:43;;;;;;;7.78;4.32;;;;;;;13.74;75.95;96097.34;5115004;28;20035;-61
2021/05/28 02:51:09;;;;;;;7.28;4.53;;;;;;;13.72;76.02;96104.44;5115074;28;20385;-57
2021/05/28 02:53:34;;;;;;;10.52;4.65;;;;;;;13.73;75.79;96105.31;5115116;28;20016;-62
2021/05/28 02:56:02;;;;;;;5.55;4.20;;;;;;;13.76;75.94;96107.75;5114999;28;20016;-62
2021/05/28 02:58:28;;;;;;;15.02;4.95;;;;;;;13.76;76.11;96108.59;5114251;28;20098;-61
2021/05/28 03:00:54;;;;;;;11.32;5.03;;;;;;;13.79;76.30;96104.09;5114786;28;20434;-57
2021/05/28 03:03:19;;;;;;;5.70;4.00;;;;;;;13.71;76.13;96096.66;5114807;28;20373;-61
2021/05/28 03:05:46;;;;;;;6.30;4.63;;;;;;;13.70;76.39;96098.44;5114776;28;20560;-55
2021/05/28 03:08:12;;;;;;;8.38;4.78;;;;;;;13.73;77.03;96100.06;5114789;28;20059;-65
2021/05/28 03:10:37;;;;;;;12.30;5.10;;;;;;;13.81;77.09;96102.25;5114708;28;20059;-59
2021/05/28 03:13:03;;;;;;;9.93;4.82;;;;;;;13.84;76.95;96107.28;5113269;28;20028;-62
2021/05/28 03:15:28;;;;;;;13.13;4.72;;;;;;;13.85;76.36;96103.75;5114490;28;20098;-59
2021/05/28 03:17:54;;;;;;;10.05;4.65;;;;;;;13.90;76.42;96099.06;5114603;28;20376;-61
2021/05/28 03:20:26;;;;;;;8.82;4.45;;;;;;;13.95;76.35;96101.41;5114493;28;20024;-64
2021/05/28 03:22:53;;;;;;;7.82;4.57;;;;;;;13.94;76.05;96111.06;5114589;28;20052;-55
2021/05/28 03:25:20;;;;;;;8.55;4.00;;;;;;;13.97;76.02;96105.63;5114261;28;20028;-59
2021/05/28 03:27:48;;;;;;;7.35;4.68;;;;;;;14.00;76.05;96109.91;5114384;28;20053;-62
2021/05/28 03:30:15;;;;;;;17.08;4.45;;;;;;;13.95;76.10;96112.78;5114322;28;20026;-56
2021/05/28 03:32:40;;;;;;;10.35;4.22;;;;;;;14.01;76.17;96111.59;5114396;28;20023;-60
2021/05/28 03:35:07;;;;;;;9.63;4.15;;;;;;;14.06;76.10;96119.19;5113848;28;20019;-55
2021/05/28 03:37:33;;;;;;;10.77;4.13;;;;;;;14.11;75.88;96120.63;5114168;28;20023;-63
2021/05/28 03:40:00;;;;;;;5.50;4.30;;;;;;;14.14;75.28;96124.84;5114091;28;20027;-59
2021/05/28 03:42:26;;;;;;;9.52;3.83;;;;;;;14.15;75.86;96123.94;5114140;28;20081;-60
2021/05/28 03:44:52;;;;;;;7.30;4.10;;;;;;;14.23;75.63;96126.06;5114099;28;20020;-62
2021/05/28 03:47:18;;;;;;;9.45;3.75;;;;;;;14.23;75.25;96115.56;5113936;28;20461;-63
2021/05/28 03:49:44;;;;;;;8.25;4.07;;;;;;;14.25;75.35;96117.19;5114027;28;20024;-59
2021/05/28 03:52:11;;;;;;;15.85;4.43;;;;;;;14.27;75.53;96115.28;5113836;28;20019;-55
2021/05/28 03:54:38;;;;;;;12.13;3.88;;;;;;;14.34;75.60;96117.56;5113976;28;20476;-62
2021/05/28 03:57:04;;;;;;;7.30;3.92;;;;;;;14.40;75.62;96120.69;5113982;28;20024;-65
2021/05/28 03:59:30;;;;;;;4.35;3.65;;;;;;;14.46;75.80;96110.72;5113779;28;20031;-59
2021/05/28 04:01:56;;;;;;;4.60;3.92;;;;;;;14.52;75.96;96110.34;5113672;28;20012;-60
2021/05/28 04:04:22;;;;;;;9.98;4.00;;;;;;;14.63;75.24;96107.88;5113747;28;20031;-59
2021/05/28 04:06:48;;;;;;;6.20;4.30;;;;;;;14.65;75.48;96107.78;5113709;28;20016;-57
2021/05/28 04:09:14;;;;;;;8.05;3.67;;;;;;;14.71;75.82;96110.06;5112772;28;20015;-60
2021/05/28 04:11:39;;;;;;;5.03;3.50;;;;;;;14.92;76.36;96117.59;5113526;28;20020;-59
2021/05/28 04:14:05;;;;;;;7.07;3.83;;;;;;;15.10;75.68;96112.09;5113725;28;20027;-60
2021/05/28 04:16:31;;;;;;;7.63;3.50;;;;;;;15.38;75.95;96110.38;5113629;28;20023;-59
2021/05/28 04:18:56;;;;;;;6.40;3.55;;;;;;;15.62;75.72;96115.00;5113556;28;20023;-60
2021/05/28 04:21:22;;;;;;;4.65;3.65;;;;;;;15.98;73.11;96108.25;5113585;28;20622;-60
2021/05/28 04:23:48;;;;;;;5.63;3.45;;;;;;;16.64;73.99;96111.75;5113644;28;20016;-62
2021/05/28 04:26:13;;;;;;;6.63;2.60;;;;;;;17.24;70.29;96112.00;5113419;28;20016;-63
2021/05/28 04:28:39;;;;;;;5.28;3.40;;;;;;;17.49;68.39;96109.41;5113444;28;20031;-60
2021/05/28 04:31:05;;;;;;;8.57;3.22;;;;;;;17.56;67.89;96108.00;5113391;28;20024;-58
2021/05/28 04:33:30;;;;;;;4.68;3.38;;;;;;;17.64;69.07;96113.53;5113545;28;20019;-59
2021/05/28 04:35:56;;;;;;;12.60;3.45;;;;;;;17.69;67.86;96110.56;5113173;28;20131;-59
2021/05/28 04:38:22;;;;;;;4.60;3.70;;;;;;;17.64;69.12;96112.72;5113254;28;20030;-59
2021/05/28 04:40:49;;;;;;;6.55;3.60;;;;;;;17.61;69.43;96110.31;5113302;28;20023;-61
2021/05/28 04:43:15;;;;;;;7.55;4.28;;;;;;;17.55;68.82;96125.66;5113288;28;20038;-64
2021/05/28 04:45:41;;;;;;;9.75;4.20;;;;;;;17.53;67.08;96110.84;5113303;28;20028;-63
2021/05/28 04:48:07;;;;;;;8.15;3.22;;;;;;;17.49;68.99;96117.34;5113159;28;20019;-61
2021/05/28 04:50:33;;;;;;;6.30;4.43;;;;;;;17.45;69.61;96123.81;5113334;28;20024;-60
2021/05/28 04:53:00;;;;;;;10.65;3.67;;;;;;;17.31;67.93;96130.94;5113315;28;20024;-59
2021/05/28 04:55:26;;;;;;;9.18;4.22;;;;;;;17.21;67.90;96129.88;5113286;28;20031;-60
2021/05/28 04:57:53;;;;;;;6.07;4.47;;;;;;;17.27;69.78;96124.16;5113328;28;20387;-64
2021/05/28 05:00:20;;;;;;;7.28;4.18;;;;;;;17.26;70.14;96115.41;5113104;28;20031;-63
2021/05/28 05:02:47;;;;;;;6.82;4.10;;;;;;;17.32;70.57;96127.31;5111832;28;20114;-63
2021/05/28 05:05:13;;;;;;;9.55;4.50;;;;;;;17.35;70.95;96128.91;5113169;28;20027;-63
2021/05/28 05:07:39;;;;;;;6.60;3.95;;;;;;;17.34;71.64;96129.84;5113150;28;20098;-59
2021/05/28 05:10:06;;;;;;;6.20;4.20;;;;;;;17.26;71.69;96125.13;5113247;28;20111;-58
2021/05/28 05:12:31;;;;;;;5.70;4.07;;;;;;;17.23;71.30;96118.25;5113151;28;20054;-63
2021/05/28 05:14:57;;;;;;;5.72;4.47;;;;;;;17.24;71.58;96124.38;5113090;28;20016;-61
2021/05/28 05:17:23;;;;;;;9.20;4.53;;;;;;;17.26;72.06;96131.25;5112994;28;20061;-63
2021/05/28 05:19:48;;;;;;;7.50;4.10;;;;;;;17.29;72.25;96127.53;5112946;28;20028;-60
2021/05/28 05:22:14;;;;;;;8.80;3.80;;;;;;;17.33;71.98;96134.28;5117002;28;20076;-60
2021/05/28 05:24:39;;;;;;;6.45;3.83;;;;;;;17.39;71.94;96136.50;5116763;28;20024;-61
2021/05/28 05:27:06;;;;;;;7.28;3.95;;;;;;;17.41;70.46;96136.38;5116814;28;20027;-58
2021/05/28 05:29:31;;;;;;;5.93;3.95;;;;;;;17.42;71.04;96130.13;5116619;28;20041;-61
2021/05/28 05:31:57;;;;;;;11.73;4.50;;;;;;;17.37;70.49;96125.19;5116643;28;20589;-61
2021/05/28 05:34:26;;;;;;;9.48;4.30;;;;;;;17.39;70.31;96128.56;5118118;28;20019;-60
2021/05/28 05:36:51;;;;;;;6.90;3.97;;;;;;;17.46;70.84;96136.88;5119285;28;20051;-65
2021/05/28 05:39:17;;;;;;;9.35;3.85;;;;;;;17.52;71.82;96128.50;5116385;28;20027;-63
2021/05/28 05:41:43;;;;;;;7.82;3.92;;;;;;;17.55;71.96;96138.88;5116397;28;20028;-63
2021/05/28 05:44:09;;;;;;;7.90;4.30;;;;;;;17.61;71.19;96142.03;5116392;28;20024;-61
2021/05/28 05:46:34;;;;;;;7.97;4.07;;;;;;;17.64;70.99;96136.53;5116488;28;20016;-61
2021/05/28 05:49:00;;;;;;;7.53;4.00;;;;;;;17.67;71.38;96144.22;5116221;28;20099;-59
2021/05/28 05:51:26;;;;;;;9.13;4.50;;;;;;;17.72;71.81;96133.28;5116289;28;20031;-56
2021/05/28 05:53:52;;;;;;;7.57;3.75;;;;;;;17.71;70.91;96139.53;5116177;28;20016;-61
2021/05/28 05:56:18;;;;;;;9.68;3.97;;;;;;;17.72;71.08;96149.16;5116248;28;20016;-57
2021/05/28 05:58:43;;;;;;;5.18;3.70;;;;;;;17.72;71.96;96157.09;5116097;28;20465;-58
2021/05/28 06:01:09;;;;;;;7.78;3.83;;;;;;;17.74;71.40;96155.19;5116098;28;20038;-63
2021/05/28 06:03:35;;;;;;;9.63;4.18;;;;;;;17.74;71.21;96163.97;5116090;28;20121;-57
2021/05/28 06:06:01;;;;;;;8.85;3.78;;;;;;;17.75;71.39;96144.50;5116063;28;20102;-62
2021/05/28 06:08:27;;;;;;;8.57;3.90;;;;;;;17.75;71.70;96156.88;5115958;28;20020;-61
2021/05/28 06:10:52;;;;;;;7.40;3.70;;;;;;;17.71;71.30;96155.41;5115808;28;20489;-64
2021/05/28 06:13:18;;;;;;;5.70;3.42;;;;;;;17.50;70.67;96154.22;5115779;28;20085;-61
2021/05/28 06:15:44;;;;;;;7.07;3.38;;;;;;;17.49;70.18;96157.00;5115672;28;20465;-58
2021/05/28 06:18:10;;;;;;;6.60;3.30;;;;;;;17.42;69.92;96160.06;5115800;28;20024;-61
2021/05/28 06:20:35;;;;;;;7.53;4.25;;;;;;;17.48;70.50;96163.22;5115654;28;20019;-59
2021/05/28 06:23:01;;;;;;;6.32;3.97;;;;;;;17.51;70.63;96161.19;5115657;28;20056;-62
2021/05/28 06:25:27;;;;;;;6.60;3.72;;;;;;;17.60;70.66;96154.41;5115570;28;20024;-62
2021/05/28 06:27:53;;;;;;;9.45;3.65;;;;;;;17.65;71.40;96148.78;5115487;28;20016;-56
2021/05/28 06:30:19;;;;;;;6.88;4.13;;;;;;;17.72;71.38;96159.75;5115573;27;20066;-63
2021/05/28 06:32:45;;;;;;;6.10;4.18;;;;;;;17.78;71.27;96159.28;5114537;28;20055;-64
2021/05/28 06:35:11;;;;;;;8.75;3.78;;;;;;;17.82;71.12;96158.09;5115230;28;20051;-62
2021/05/28 06:37:37;;;;;;;8.20;3.80;;;;;;;17.88;70.49;96160.31;5115374;28;20023;-64
2021/05/28 06:40:05;;;;;;;5.03;3.83;;;;;;;17.93;70.05;96159.97;5115145;28;20015;-63
2021/05/28 06:42:31;;;;;;;7.57;3.60;;;;;;;18.00;70.48;96160.38;5114104;28;20389;-60
2021/05/28 06:44:56;;;;;;;7.50;3.72;;;;;;;18.03;70.30;96158.31;5115113;28;20107;-58
2021/05/28 06:47:23;;;;;;;6.30;3.60;;;;;;;18.11;70.63;96162.22;5115189;28;20354;-63
2021/05/28 06:49:49;;;;;;;6.07;3.60;;;;;;;18.16;70.31;96160.94;5115016;28;20031;-65
2021/05/28 06:52:14;;;;;;;3.30;2.95;;;;;;;18.26;70.16;96168.19;5115214;28;20015;-64
2021/05/28 06:54:40;;;;;;;4.85;3.42;;;;;;;18.31;70.03;96164.22;5114961;28;20020;-60
2021/05/28 06:57:05;;;;;;;5.78;4.00;;;;;;;18.41;70.54;96163.53;5115030;28;20024;-59
2021/05/28 06:59:31;;;;;;;5.85;4.00;;;;;;;18.51;71.86;96166.34;5114996;28;20111;-62
2021/05/28 07:01:57;;;;;;;7.53;3.80;;;;;;;18.63;71.46;96164.56;5114846;28;20051;-62
2021/05/28 07:04:22;;;;;;;6.93;3.58;;;;;;;18.66;71.39;96173.09;5114835;28;20473;-59
2021/05/28 07:06:48;;;;;;;7.05;3.28;;;;;;;18.75;70.93;96168.88;5114843;28;20020;-61
2021/05/28 07:09:14;;;;;;;6.53;3.42;;;;;;;18.80;68.03;96164.09;5114760;28;20495;-62
2021/05/28 07:11:40;;;;;;;3.85;3.17;;;;;;;18.83;65.01;96170.94;5114774;28;20086;-58
2021/05/28 07:14:06;;;;;;;8.23;3.25;;;;;;;18.90;64.87;96169.50;5114535;28;20038;-59
2021/05/28 07:16:32;;;;;;;5.50;3.55;;;;;;;19.01;65.50;96171.31;5114565;28;20024;-60
2021/05/28 07:18:58;;;;;;;4.68;3.40;;;;;;;19.11;66.31;96168.81;5114388;28;20016;-62
2021/05/28 07:21:24;;;;;;;5.93;3.30;;;;;;;19.18;64.53;96162.06;5114487;28;20024;-62
2021/05/28 07:23:50;;;;;;;4.45;2.90;;;;;;;19.28;64.84;96159.53;5114642;28;20062;-61
2021/05/28 07:26:16;;;;;;;7.38;3.05;;;;;;;19.36;63.99;96163.38;5114398;28;20067;-57
2021/05/28 07:28:42;;;;;;;5.18;3.38;;;;;;;19.42;63.97;96158.41;5113146;28;20028;-61
2021/05/28 07:31:07;;;;;;;6.05;3.10;;;;;;;19.49;63.46;96148.19;5114479;28;20102;-61
2021/05/28 07:33:33;;;;;;;6.07;3.47;;;;;;;19.59;65.10;96153.56;5114194;28;20024;-65
2021/05/28 07:35:59;;;;;;;6.13;3.20;;;;;;;19.69;63.59;96143.91;5113860;28;20051;-64
2021/05/28 07:38:25;;;;;;;8.65;3.40;;;;;;;19.80;63.21;96150.97;5114154;28;20032;-62
2021/05/28 07:40:50;;;;;;;4.35;3.05;;;;;;;19.90;61.57;96156.38;5114192;28;20466;-60
2021/05/28 07:43:16;;;;;;;7.20;3.22;;;;;;;20.06;61.82;96150.69;5113944;28;20023;-65
2021/05/28 07:45:48;;;;;;;6.15;3.05;;;;;;;20.20;62.10;96161.97;5113889;27;20035;-61
2021/05/28 07:48:14;;;;;;;9.55;3.20;;;;;;;20.32;63.15;96168.06;5114156;28;20389;-60
2021/05/28 07:50:46;;;;;;;3.42;2.60;;;;;;;20.45;63.41;96166.06;5114091;28;20016;-56
2021/05/28 07:53:23;;;;;;;7.38;3.42;;;;;;;20.49;62.28;96173.75;5114114;28;20393;-58
2021/05/28 07:55:49;;;;;;;10.48;3.05;;;;;;;20.49;62.77;96177.25;5114108;28;20039;-64
2021/05/28 07:58:16;;;;;;;7.30;2.75;;;;;;;20.59;61.02;96172.03;5113901;28;20027;-60
2021/05/28 08:00:42;;;;;;;5.53;3.25;;;;;;;20.71;61.09;96170.16;5113837;28;20028;-62
2021/05/28 08:03:08;;;;;;;6.18;3.13;;;;;;;20.88;62.81;96175.81;5113817;28;20027;-64
2021/05/28 08:05:35;;;;;;;5.50;3.05;;;;;;;20.94;61.51;96177.97;5113801;28;20103;-64
2021/05/28 08:08:02;;;;;;;6.35;3.28;;;;;;;21.04;60.71;96172.72;5113801;28;20469;-61
2021/05/28 08:10:31;;;;;;;6.38;3.33;;;;;;;21.12;60.17;96183.50;5113747;28;20033;-61
2021/05/28 08:12:57;;;;;;;6.22;2.58;;;;;;;21.15;58.92;96179.75;5113767;28;20036;-63
2021/05/28 08:15:24;;;;;;;3.95;2.78;;;;;;;21.09;59.22;96186.44;5113707;28;20481;-57
2021/05/28 08:17:51;;;;;;;3.60;2.55;;;;;;;21.16;59.90;96179.59;5113829;28;20020;-66
2021/05/28 08:20:18;;;;;;;4.85;2.63;;;;;;;21.20;58.90;96178.34;5113558;28;20027;-64
2021/05/28 08:22:44;;;;;;;5.78;2.30;;;;;;;21.32;57.84;96180.94;5113591;28;20069;-61
2021/05/28 08:25:12;;;;;;;5.03;2.42;;;;;;;21.36;55.50;96181.50;5113511;28;20046;-61
2021/05/28 08:27:38;;;;;;;3.85;2.35;;;;;;;21.46;54.20;96180.56;5113558;28;20474;-62
2021/05/28 08:30:06;;;;;;;4.82;2.40;;;;;;;21.55;55.30;96178.06;5113460;28;20181;-65
2021/05/28 08:32:32;;;;;;;4.43;2.10;;;;;;;21.59;55.48;96177.63;5113487;28;20072;-60
2021/05/28 08:34:58;;;;;;;5.90;2.50;;;;;;;21.61;55.05;96180.16;5113560;28;20023;-60
2021/05/28 08:37:23;;;;;;;3.25;2.45;;;;;;;21.66;57.31;96177.09;5113360;28;20055;-65
2021/05/28 08:39:49;;;;;;;2.80;1.80;;;;;;;21.70;56.95;96178.50;5113290;28;20027;-61
2021/05/28 08:42:22;;;;;;;4.97;2.08;;;;;;;21.69;54.01;96185.66;5113469;28;20024;-66
2021/05/28 08:44:51;;;;;;;4.97;2.03;;;;;;;21.65;52.39;96183.41;5113451;28;20027;-63
2021/05/28 08:47:18;;;;;;;10.77;2.25;;;;;;;21.52;52.98;96175.69;5113446;28;20019;-64
2021/05/28 08:49:57;;;;;;;2.65;2.45;;;;;;;21.54;54.60;96177.22;5113514;28;20531;-64
2021/05/28 08:52:23;;;;;;;3.15;2.65;;;;;;;21.59;54.78;96185.63;5113261;28;20473;-62
2021/05/28 08:54:51;;;;;;;3.67;1.90;;;;;;;21.55;51.92;96186.06;5113379;28;20020;-62
2021/05/28 08:57:22;;;;;;;5.82;2.50;;;;;;;21.52;52.63;96183.66;5117479;28;20517;-64
2021/05/28 08:59:50;;;;;;;3.97;2.25;;;;;;;21.51;54.66;96182.81;5117333;28;20035;-63
2021/05/28 09:02:40;;;;;;;5.40;2.63;;;;;;;21.46;57.16;96183.22;5117074;28;20027;-59
2021/05/28 09:05:16;;;;;;;4.82;2.30;;;;;;;21.45;55.80;96178.03;5117141;28;20028;-65
2021/05/28 09:07:55;;;;;;;2.53;2.08;;;;;;;21.40;54.79;96175.78;5117167;28;20059;-59
2021/05/28 09:10:51;;;;;;;3.35;2.05;;;;;;;21.47;55.85;96178.75;5117249;28;20118;-65
2021/05/28 09:13:21;;;;;;;5.13;2.20;;;;;;;21.53;56.08;96180.03;5115885;28;20070;-65
2021/05/28 09:16:03;;;;;;;3.35;2.35;;;;;;;21.53;55.80;96175.56;5117053;28;20081;-62
2021/05/28 09:19:05;;;;;;;2.00;1.70;;;;;;;21.57;54.90;96176.97;5116961;28;20039;-60
2021/05/28 09:21:35;;;;;;;6.50;2.40;;;;;;;21.51;57.18;96173.97;5116947;28;20016;-61
2021/05/28 09:24:04;;;;;;;7.93;2.17;;;;;;;21.51;58.37;96177.50;5117083;28;20073;-62
2021/05/28 09:26:32;;;;;;;6.82;2.47;;;;;;;21.53;57.60;96167.56;5116966;28;20023;-63
2021/05/28 09:29:00;;;;;;;7.03;1.85;;;;;;;21.37;54.71;96172.56;5116649;28;20389;-57
2021/05/28 09:31:29;;;;;;;3.53;2.25;;;;;;;21.36;55.31;96168.19;5116658;28;20086;-63
2021/05/28 09:33:56;;;;;;;4.10;2.40;;;;;;;21.39;56.45;96160.81;5116561;28;20031;-60
2021/05/28 09:36:27;;;;;;;5.68;2.53;;;;;;;21.41;56.23;96166.00;5116488;28;20374;-60
2021/05/28 09:39:07;;;;;;;4.25;2.38;;;;;;;21.35;56.09;96167.38;5116431;28;20036;-64
2021/05/28 09:41:37;;;;;;;4.85;2.40;;;;;;;21.36;57.43;96163.72;5116550;28;20099;-62
2021/05/28 09:44:22;;;;;;;3.03;1.93;;;;;;;21.34;57.16;96157.69;5116623;28;20036;-61
2021/05/28 09:47:16;;;;;;;3.15;2.38;;;;;;;21.23;57.32;96161.31;5116501;28;20023;-59
2021/05/28 09:49:55;;;;;;;4.93;2.42;;;;;;;21.12;58.26;96159.59;5116388;28;20487;-64
2021/05/28 09:52:26;;;;;;;4.93;1.83;;;;;;;20.94;56.66;96154.91;5116321;28;20038;-63
2021/05/28 09:55:05;;;;;;;2.83;1.50;;;;;;;20.91;54.82;96152.50;5116105;28;20031;-62
2021/05/28 09:57:35;;;;;;;3.10;2.17;;;;;;;20.75;54.84;96152.97;5116351;28;20082;-59
2021/05/28 10:00:06;;;;;;;7.70;2.55;;;;;;;20.64;58.82;96153.88;5116181;28;20020;-64
2021/05/28 10:02:41;;;;;;;9.70;3.50;;;;;;;20.48;60.30;96140.19;5116106;28;20484;-57
2021/05/28 10:05:07;;;;;;;6.00;3.63;;;;;;;20.29;61.51;96139.13;5116028;28;20118;-62
2021/05/28 10:07:36;;;;;;;5.78;3.90;;;;;;;20.17;62.58;96136.50;5115881;28;20023;-55
2021/05/28 10:10:04;;;;;;;7.47;3.88;;;;;;;20.07;63.26;96146.19;5116013;28;20027;-56
2021/05/28 10:12:30;;;;;;;12.57;3.83;;;;;;;19.69;66.13;96149.19;5116093;28;20439;-62
2021/05/28 10:14:56;;;;;;;8.10;4.25;;;;;;;19.49;66.79;96153.47;5115844;28;20024;-61
2021/05/28 10:17:23;;;;;;;5.88;3.70;;;;;;;19.25;66.66;96158.94;5115863;28;20515;-65
2021/05/28 10:19:50;;;;;;;4.60;3.60;;;;;;;19.05;66.11;96162.16;5115623;28;20045;-62
2021/05/28 10:22:17;;;;;;;8.13;3.88;;;;;;;18.75;67.83;96160.13;5115546;28;20027;-56
2021/05/28 10:24:44;;;;;;;7.60;4.68;;;;;;;18.69;68.49;96162.25;5115634;28;20030;-64
2021/05/28 10:27:11;;;;;;;11.63;4.18;;;;;;;18.65;68.76;96168.75;5115735;28;20038;-63
2021/05/28 10:29:41;;;;;;;6.85;3.58;;;;;;;18.47;67.30;96167.50;5115527;28;20032;-58
2021/05/28 10:32:13;;;;;;;5.07;2.92;;;;;;;18.38;67.48;96169.06;5115615;28;20039;-64
2021/05/28 10:35:04;;;;;;;3.38;2.25;;;;;;;18.42;65.16;96171.34;5115592;28;20028;-62
2021/05/28 10:37:31;;;;;;;3.30;2.10;;;;;;;18.38;65.26;96172.56;5115426;28;20061;-59
2021/05/28 10:39:58;;;;;;;3.63;2.00;;;;;;;18.44;63.22;96174.75;5115254;28;20502;-61
2021/05/28 10:42:25;;;;;;;3.22;1.60;;;;;;;18.54;61.93;96179.31;5115261;28;20020;-59
2021/05/28 10:44:50;;;;;;;3.95;2.15;;;;;;;18.60;63.10;96178.03;5115330;28;20049;-58
2021/05/28 10:47:17;;;;;;;4.38;2.08;;;;;;;18.70;63.72;96181.66;5115460;28;20125;-61
2021/05/28 10:49:49;;;;;;;3.25;1.80;;;;;;;18.82;63.69;96183.34;5115280;28;20161;-62
2021/05/28 10:52:29;;;;;;;3.30;2.00;;;;;;;18.84;66.11;96177.94;5114990;28;20027;-57
2021/05/28 10:54:58;;;;;;;1.90;1.45;;;;;;;18.68;63.35;96184.41;5115097;28;20083;-56
2021/05/28 10:57:30;;;;;;;2.83;1.95;;;;;;;18.65;62.03;96181.16;5114956;28;20024;-62
2021/05/28 11:00:00;;;;;;;4.03;1.85;;;;;;;18.64;62.21;96179.47;5114810;28;20640;-56
2021/05/28 11:02:46;;;;;;;2.95;2.20;;;;;;;18.62;61.84;96176.09;5114963;28;20498;-58
2021/05/28 11:05:12;;;;;;;3.90;2.13;;;;;;;18.44;62.85;96172.09;5114754;28;20027;-58
2021/05/28 11:07:44;;;;;;;3.33;2.28;;;;;;;18.48;63.43;96166.56;5114473;28;20034;-62
2021/05/28 11:10:23;;;;;;;7.45;2.40;;;;;;;18.53;64.43;96162.59;5114889;28;20027;-59
2021/05/28 11:12:52;;;;;;;3.30;2.20;;;;;;;18.60;62.46;96149.72;5114724;28;20088;-61
2021/05/28 11:15:26;;;;;;;3.75;2.40;;;;;;;18.60;62.65;96151.53;5114598;28;20431;-60
2021/05/28 11:18:04;;;;;;;4.00;3.08;;;;;;;18.61;62.20;96147.94;5114023;28;20035;-59
2021/05/28 11:20:32;;;;;;;5.43;2.80;;;;;;;18.65;61.71;96136.97;5114416;28;20162;-64
2021/05/28 11:23:00;;;;;;;4.57;3.00;;;;;;;18.61;60.88;96137.34;5114562;28;20031;-62
2021/05/28 11:25:31;;;;;;;3.35;2.78;;;;;;;18.54;60.98;96132.50;5114581;28;20032;-64
2021/05/28 11:28:10;;;;;;;8.02;3.28;;;;;;;18.58;62.01;96132.28;5114385;28;20024;-56
2021/05/28 11:30:43;;;;;;;3.83;2.85;;;;;;;18.55;62.55;96130.72;5114331;28;20529;-58
2021/05/28 11:33:29;;;;;;;3.50;3.13;;;;;;;18.40;62.87;96125.63;5114402;28;20047;-61